Home > Products > Valid Products > TAF

000
FTUS41 KPBZ 250500
TAFMGW
TAF
KMGW 250535Z 2506/2606 01002KT P6SM SKC
     FM251000 00000KT 2SM BR SKC
     FM251300 25003KT P6SM SKC=



000
FTUS41 KPBZ 250500
TAFZZV
TAF
KZZV 250535Z 2506/2606 32003KT P6SM SKC
     FM251000 00000KT 2SM BR SKC
     FM251300 25003KT P6SM SKC=



000
FTUS41 KPBZ 250500
TAFDUJ
TAF
KDUJ 250535Z 2506/2606 01004KT P6SM SKC
     FM251000 00000KT 2SM BR SKC
     FM251300 25003KT P6SM SKC=



000
FTUS41 KPBZ 250500
TAFHLG
TAF
KHLG 250535Z 2506/2606 01004KT P6SM SKC
     FM251000 00000KT 2SM BR SKC
     FM251300 25003KT P6SM SKC=



000
FTUS41 KPBZ 250500
TAFPIT
TAF
KPIT 250535Z 2506/2612 36004KT P6SM SKC
     FM250800 00000KT 5SM BR SKC
     FM251300 25003KT P6SM SKC=



000
FTUS41 KPBZ 250500
TAFBVI
TAF
KBVI 250535Z 2506/2606 36004KT P6SM SKC
     FM250800 00000KT 3SM BR SKC
     FM251300 25003KT P6SM SKC
      AMD NOT SKED=



000
FTUS41 KPBZ 250500
TAFLBE
TAF
KLBE 250535Z 2506/2606 33005KT P6SM SKC
     FM250800 00000KT 5SM BR SKC
     FM251300 25003KT P6SM SKC=



000
FTUS41 KPBZ 250500
TAFAGC
TAF
KAGC 250535Z 2506/2606 36004KT P6SM SKC
     FM250800 00000KT 5SM BR SKC
     FM251300 25003KT P6SM SKC=



000
FTUS41 KPBZ 250200 AAA
TAFPIT
TAF AMD
KPIT 250225Z 2502/2606 33009KT P6SM SKC
     FM250800 00000KT 5SM BR SKC
     FM251300 25003KT P6SM SKC=



000
FTUS41 KPBZ 242300
TAFAGC
TAF
KAGC 242338Z 2500/2524 34009KT P6SM SKC
     FM250800 00000KT 5SM BR SKC
     FM251300 25003KT P6SM SKC=



000
FTUS41 KPBZ 242300
TAFLBE
TAF
KLBE 242338Z 2500/2524 33005KT P6SM SKC
     FM250800 00000KT 5SM BR SKC
     FM251000 00000KT 1SM BR SKC
     FM251300 25003KT P6SM SKC=



000
FTUS41 KPBZ 242300
TAFMGW
TAF
KMGW 242338Z 2500/2524 35009KT P6SM SCT050
     FM250400 01004KT P6SM SKC
     FM250800 00000KT 5SM BR SKC
     FM251000 00000KT 1/2SM FG SKC
     FM251300 25003KT P6SM SKC=



000
FTUS41 KPBZ 242300
TAFPIT
TAF
KPIT 242338Z 2500/2606 33009KT P6SM SKC
     FM250800 00000KT 5SM BR SKC
     FM251300 25003KT P6SM SKC=



000
FTUS41 KPBZ 242300
TAFBVI
TAF
KBVI 242338Z 2500/2524 35005KT P6SM SKC
     FM250800 00000KT 5SM BR SKC
     FM251000 00000KT 1/2SM FG SKC
     FM251300 25003KT P6SM SKC
      AMD NOT SKED 2501/2511=



000
FTUS41 KPBZ 242300
TAFZZV
TAF
KZZV 242338Z 2500/2524 35009KT P6SM SCT050
     FM250400 01004KT P6SM SKC
     FM250800 00000KT 5SM BR SKC
     FM250900 00000KT 1SM BR SKC
     FM251000 00000KT 1/4SM FG SKC
     FM251300 25003KT P6SM SKC=



000
FTUS41 KPBZ 242300
TAFHLG
TAF
KHLG 242338Z 2500/2524 33009KT P6SM SCT050
     FM250300 01004KT P6SM SKC
     FM250800 00000KT 5SM BR SKC
     FM251000 00000KT 1/2SM FG SKC
     FM251300 25003KT P6SM SKC=



000
FTUS41 KPBZ 242300
TAFDUJ
TAF
KDUJ 242338Z 2500/2524 35009KT P6SM SCT050
     FM250400 01004KT P6SM SKC
     FM250800 00000KT 5SM BR SKC
     FM250900 00000KT 2SM BR SKC
     FM251300 25003KT P6SM SKC=



000
FTUS41 KPBZ 242000 AAA
TAFPIT
TAF AMD
KPIT 242047Z 2421/2524 36008G16KT P6SM SCT050
     FM242300 01004KT P6SM SKC=



000
FTUS41 KPBZ 241700
TAFMGW
TAF
KMGW 241728Z 2418/2518 36008KT P6SM BKN040
     FM242300 35004KT P6SM SCT040
     FM250600 36002KT 4SM BR SKC
     FM251300 VRB03KT P6SM SKC=



000
FTUS41 KPBZ 241700
TAFAGC
TAF
KAGC 241728Z 2418/2518 36007KT P6SM BKN040
     FM242300 01004KT P6SM SKC=



000
FTUS41 KPBZ 241700
TAFPIT
TAF
KPIT 241728Z 2418/2524 36008G16KT P6SM BKN040
     FM242300 01004KT P6SM SKC=



000
FTUS41 KPBZ 241700
TAFZZV
TAF
KZZV 241728Z 2418/2518 01007KT P6SM BKN040
     FM250600 36002KT 4SM BR SKC
     FM251300 VRB03KT P6SM SKC=



000
FTUS41 KPBZ 241700
TAFDUJ
TAF
KDUJ 241728Z 2418/2518 35007KT P6SM BKN040
     FM242200 01005KT P6SM SKC=



000
FTUS41 KPBZ 241700
TAFHLG
TAF
KHLG 241728Z 2418/2518 36008G16KT P6SM BKN040
     FM242300 01004KT P6SM SKC=



000
FTUS41 KPBZ 241700
TAFLBE
TAF
KLBE 241728Z 2418/2518 01010KT P6SM BKN040
     FM242200 35004KT P6SM SKC=



000
FTUS41 KPBZ 241700
TAFBVI
TAF
KBVI 241728Z 2418/2518 36008KT P6SM BKN040
     FM242300 01004KT P6SM SKC=



000
FTUS41 KPBZ 241600 AAB
TAFPIT
TAF AMD
KPIT 241600Z 2416/2518 36008G16KT P6SM BKN040
     FM242300 01004KT P6SM SKC=



000
FTUS41 KPBZ 241500 AAB
TAFDUJ
TAF AMD
KDUJ 241559Z 2416/2512 35008KT P6SM BKN035
     FM242200 01005KT P6SM SKC=



000
FTUS41 KPBZ 241400 AAA
TAFPIT
TAF AMD
KPIT 241455Z 2415/2518 36010KT P6SM SCT025 BKN040
     FM242300 01004KT P6SM SKC=



000
FTUS41 KPBZ 241300 AAA
TAFDUJ
TAF AMD
KDUJ 241315Z 2413/2512 04008KT P6SM BKN013
     FM241500 01008KT P6SM BKN025
     FM241700 36010KT P6SM BKN035
     FM242200 01005KT P6SM SKC=



000
FTUS41 KPBZ 241300 AAA
TAFMGW
TAF AMD
KMGW 241309Z 2413/2512 02006KT P6SM SCT012 BKN025
      TEMPO 2413/2415 BKN012
     FM241600 36008KT P6SM BKN035
     FM242300 35004KT P6SM SCT040=



000
FTUS41 KPBZ 241200 CCA
TAFLBE
TAF COR
KLBE 241250Z 2413/2512 03008KT P6SM SCT015 BKN040
     FM241600 36008KT P6SM BKN040
     FM242200 35004KT P6SM SKC=



000
FTUS41 KPBZ 241200 AAA
TAFLBE
TAF AMD
KLBE 241248Z 2413/2512 03008KT P6SM SCT013 BKN040
      TEMPO 2413/2415 BKN013
     FM242200 35004KT P6SM SKC=



000
FTUS41 KPBZ 241100
TAFHLG
TAF
KHLG 241131Z 2412/2512 36008KT P6SM BKN040
     FM242300 01004KT P6SM SKC=



000
FTUS41 KPBZ 241100
TAFMGW
TAF
KMGW 241131Z 2412/2512 34006KT P6SM SCT015 BKN025
      TEMPO 2412/2413 BKN015
     FM241600 36008KT P6SM BKN035
     FM242300 35004KT P6SM SCT040=



000
FTUS41 KPBZ 241100
TAFLBE
TAF
KLBE 241131Z 2412/2512 35008KT P6SM BKN040
     FM242200 35004KT P6SM SKC=



000
FTUS41 KPBZ 241100
TAFDUJ
TAF
KDUJ 241131Z 2412/2512 01007KT P6SM BKN035
     FM242200 01005KT P6SM SKC=



000
FTUS41 KPBZ 241100
TAFAGC
TAF
KAGC 241131Z 2412/2512 36008KT P6SM BKN040
     FM242300 01004KT P6SM SKC=



000
FTUS41 KPBZ 241100
TAFZZV
TAF
KZZV 241131Z 2412/2512 01007KT P6SM BKN035
     FM242000 02005KT P6SM SCT040=



000
FTUS41 KPBZ 241100
TAFBVI
TAF
KBVI 241131Z 2412/2512 36008KT P6SM BKN040
     FM242300 01004KT P6SM SKC=



000
FTUS41 KPBZ 241100
TAFPIT
TAF
KPIT 241131Z 2412/2518 36008KT P6SM BKN040
     FM242300 01004KT P6SM SKC=



000
FTUS41 KPBZ 241000 AAB
TAFZZV
TAF AMD
KZZV 241010Z 2410/2506 01005KT P6SM BKN015 OVC040
     FM241300 01005KT P6SM BKN035
     FM242000 01005KT P6SM SCT040
     FM250100 00000KT P6SM SKC=



000
FTUS41 KPBZ 241000 AAA
TAFHLG
TAF AMD
KHLG 241010Z 2410/2506 34007KT P6SM BKN025
     FM241300 01008KT P6SM BKN035
     FM242000 01006KT P6SM SCT040
     FM250200 VRB02KT P6SM SKC=



000
FTUS41 KPBZ 241000 AAA
TAFMGW
TAF AMD
KMGW 241008Z 2410/2506 34006KT P6SM BKN015
     FM241300 35005KT P6SM OVC025
     FM241600 36008KT P6SM BKN035
     FM242200 01004KT P6SM SCT040=



000
FTUS41 KPBZ 241000 AAA
TAFLBE
TAF AMD
KLBE 241006Z 2410/2506 VRB03KT P6SM BKN015 OVC050
     FM241200 34006KT P6SM OVC025
     FM241500 36008KT P6SM BKN035
     FM242200 35005KT P6SM SCT040
     FM250400 VRB02KT P6SM SKC=



000
FTUS41 KPBZ 241000 AAA
TAFAGC
TAF AMD
KAGC 241003Z 2410/2506 35007KT P6SM BKN035
     FM242200 02005KT P6SM SCT040
     FM250300 VRB03KT P6SM SKC=



000
FTUS41 KPBZ 240900 AAA
TAFDUJ
TAF AMD
KDUJ 240951Z 2410/2506 35007KT P6SM SCT035
     FM241200 35003KT P6SM BKN025
     FM241500 01006KT P6SM BKN035
     FM242200 36005KT P6SM SCT040=



000
FTUS41 KPBZ 240800 AAA
TAFZZV
TAF AMD
KZZV 240859Z 2409/2506 36005KT P6SM OVC035
     FM242000 01005KT P6SM SCT040
     FM250100 00000KT P6SM SKC=



000
FTUS41 KPBZ 240800 AAA
TAFPIT
TAF AMD
KPIT 240858Z 2409/2512 36008KT P6SM OVC035
     FM242100 35005KT P6SM SCT040
     FM250300 VRB02KT P6SM SKC=



000
FTUS41 KPBZ 240500
TAFMGW
TAF
KMGW 240520Z 2406/2506 35005KT P6SM OVC025
     FM240800 34006KT P6SM -SHRA BKN015
     FM241000 25005KT 4SM BR BKN007
     FM241600 36008KT P6SM BKN035
     FM242200 01004KT P6SM SCT040=



000
FTUS41 KPBZ 240500
TAFBVI
TAF
KBVI 240520Z 2406/2506 33009KT P6SM BKN015 OVC060
     FM240800 35006KT P6SM OVC025
     FM241300 36008KT P6SM BKN035
     FM242100 35005KT P6SM SCT040
     FM250300 VRB02KT P6SM SKC
      AMD NOT SKED=



000
FTUS41 KPBZ 240500
TAFZZV
TAF
KZZV 240520Z 2406/2506 36005KT P6SM OVC025
     FM241000 34006KT 4SM BR BKN015
     FM241400 36008KT P6SM BKN035
     FM242000 01005KT P6SM SCT040
     FM250100 00000KT P6SM SKC=



000
FTUS41 KPBZ 240500
TAFDUJ
TAF
KDUJ 240520Z 2406/2506 33007KT P6SM SCT025
     FM240800 35003KT P6SM BKN015
     FM241500 01006KT P6SM BKN035
     FM242200 36005KT P6SM SCT040=



000
FTUS41 KPBZ 240500
TAFHLG
TAF
KHLG 240520Z 2406/2506 34007KT P6SM BKN020 OVC060
     FM240800 34012KT P6SM OVC015
     FM241400 01008KT P6SM BKN035
     FM242000 01006KT P6SM SCT040
     FM250200 VRB02KT P6SM SKC=



000
FTUS41 KPBZ 240500
TAFPIT
TAF
KPIT 240520Z 2406/2512 33009KT P6SM BKN015 OVC060
     FM240800 35006KT P6SM OVC025
     FM241300 36008KT P6SM BKN035
     FM242100 35005KT P6SM SCT040
     FM250300 VRB02KT P6SM SKC=



000
FTUS41 KPBZ 240500
TAFLBE
TAF
KLBE 240520Z 2406/2506 VRB03KT P6SM BKN015 OVC050
     FM240800 34006KT P6SM OVC025
     FM241500 36008KT P6SM BKN035
     FM242200 35005KT P6SM SCT040
     FM250400 VRB02KT P6SM SKC=



000
FTUS41 KPBZ 240500
TAFAGC
TAF
KAGC 240520Z 2406/2506 34007KT P6SM BKN015 OVC050
     FM240800 34006KT P6SM OVC025
     FM241400 36008KT P6SM BKN035
     FM242200 35005KT P6SM SCT040
     FM250300 VRB03KT P6SM SKC=



000
FTUS41 KPBZ 240400 AAA
TAFDUJ
TAF AMD
KDUJ 240408Z 2404/2424 33007KT P6SM SCT025
     FM240600 34004KT P6SM BKN025
     FM240800 35003KT 4SM BR BKN005
     FM241500 01006KT P6SM BKN035=



000
FTUS41 KPBZ 240200 AAB
TAFPIT
TAF AMD
KPIT 240230Z 2403/2506 34008KT P6SM BKN025
     FM240800 34006KT 4SM BR BKN015
     FM241400 36008KT P6SM SCT035=



000
FTUS41 KPBZ 240200 AAA
TAFMGW
TAF AMD
KMGW 240205Z 2402/2424 34009KT P6SM BKN025
      TEMPO 2402/2404 P6SM BKN015
     FM240800 34006KT 4SM BR BKN015
     FM241600 36008KT P6SM BKN035=



000
FTUS41 KPBZ 240200 AAA
TAFLBE
TAF AMD
KLBE 240204Z 2402/2424 31008KT P6SM BKN025
      TEMPO 2402/2404 P6SM BKN015
     FM240800 34006KT 4SM BR BKN020
     FM241500 36008KT P6SM BKN035=



000
FTUS41 KPBZ 240100 AAA
TAFHLG
TAF AMD
KHLG 240141Z 2402/2424 30009KT P6SM BKN020 OVC040
      TEMPO 2402/2404 SCT020 OVC040
     FM240800 33012KT 4SM BR BKN015
     FM241400 01008KT P6SM SCT035=



000
FTUS41 KPBZ 240000 AAA
TAFAGC
TAF AMD
KAGC 240056Z 2401/2424 33012KT P6SM BKN025
      TEMPO 2401/2403 P6SM BKN015
     FM240800 34006KT 4SM BR BKN015
     FM241400 36008KT P6SM SCT035=



000
FTUS41 KPBZ 240000 AAA
TAFPIT
TAF AMD
KPIT 240055Z 2401/2506 34011KT P6SM BKN025
      TEMPO 2401/2403 P6SM BKN015
     FM240800 34006KT 4SM BR BKN015
     FM241400 36008KT P6SM SCT035=



000
FTUS41 KPBZ 232300
TAFLBE
TAF
KLBE 232326Z 2400/2424 31008KT P6SM BKN040
     FM240300 34006KT P6SM BKN025
     FM240800 34006KT 4SM BR BKN020
     FM241500 36008KT P6SM BKN035=



000
FTUS41 KPBZ 232300
TAFMGW
TAF
KMGW 232326Z 2400/2424 26009KT P6SM BKN040
     FM240300 30008KT P6SM BKN025
     FM240800 34006KT 4SM BR BKN015
     FM241600 36008KT P6SM BKN035=



000
FTUS41 KPBZ 232300
TAFHLG
TAF
KHLG 232326Z 2400/2424 30009KT P6SM BKN040
     FM240300 34008KT P6SM BKN025
     FM240800 33012KT 4SM BR BKN015
     FM241400 01008KT P6SM SCT035=



000
FTUS41 KPBZ 232300
TAFPIT
TAF
KPIT 232326Z 2400/2506 34011KT P6SM BKN025
     FM240800 34006KT 4SM BR BKN015
     FM241400 36008KT P6SM SCT035=



000
FTUS41 KPBZ 232300
TAFDUJ
TAF
KDUJ 232326Z 2400/2424 30008KT P6SM BKN025
      TEMPO 2400/2402 5SM BR BKN015
     FM240400 34010KT P6SM BKN010
     FM240600 34004KT 4SM BR SCT004
     FM240800 35003KT 4SM BR BKN005
     FM241500 01006KT P6SM BKN035=



000
FTUS41 KPBZ 232300
TAFBVI
TAF
KBVI 232326Z 2400/2424 33006KT P6SM BKN015
      TEMPO 2400/2403 5SM BR BKN010
     FM240800 34006KT 4SM BR BKN010
     FM241400 36008KT P6SM SCT035
      AMD NOT SKED 2401/2411=



000
FTUS41 KPBZ 232300
TAFZZV
TAF
KZZV 232326Z 2400/2424 34008KT P6SM BKN025
      TEMPO 2400/2402 5SM BR BKN015
     FM240300 34005KT 5SM BR BKN015
     FM240800 34006KT 4SM BR BKN008
     FM241400 36008KT P6SM BKN035=



000
FTUS41 KPBZ 232300
TAFAGC
TAF
KAGC 232326Z 2400/2424 33012KT P6SM BKN025
     FM240800 34006KT 4SM BR BKN015
     FM241400 36008KT P6SM SCT035=



000
FTUS41 KPBZ 232200 AAC
TAFBVI
TAF AMD
KBVI 232239Z 2323/2418 33012KT P6SM BKN025
      TEMPO 2323/2402 5SM BR BKN010
     FM240800 34006KT 5SM BR BKN010
     FM241400 36008KT P6SM BKN035=



000
FTUS41 KPBZ 232100 AAA
TAFDUJ
TAF AMD
KDUJ 232147Z 2322/2418 25008KT P6SM VCSH SCT022 SCT030 SCT040
     FM232300 34010KT P6SM BKN012
     FM240700 34004KT 4SM BR SCT004
     FM240800 35003KT 4SM BR BKN005
     FM241400 01006KT P6SM BKN035=



000
FTUS41 KPBZ 232100 AAB
TAFAGC
TAF AMD
KAGC 232145Z 2322/2418 31012G20KT P6SM SCT022 BKN050
     FM240000 32010KT P6SM BKN025
     FM240800 33006KT 5SM BR BKN015
     FM241400 36008KT P6SM BKN035=



000
FTUS41 KPBZ 232100 AAB
TAFPIT
TAF AMD
KPIT 232144Z 2322/2424 32013KT P6SM SCT035 BKN050
     FM240000 33012KT P6SM BKN025
     FM240800 34006KT 5SM BR BKN015
     FM241400 36008KT P6SM BKN035=



000
FTUS41 KPBZ 232100 AAB
TAFBVI
TAF AMD
KBVI 232128Z 2321/2418 31008G15KT P6SM SCT025 BKN035
     FM232300 33012KT P6SM BKN025
     FM240800 34006KT 5SM BR BKN010
     FM241400 36008KT P6SM BKN035=



000
FTUS41 KPBZ 232100 AAA
TAFHLG
TAF AMD
KHLG 232105Z 2321/2418 30010KT P6SM SCT040 BKN060
     FM232300 33012KT P6SM BKN025
     FM241500 01008KT P6SM SCT035=



000
FTUS41 KPBZ 232000 AAA
TAFBVI
TAF AMD
KBVI 232023Z 2320/2418 31008G15KT P6SM SCT025 BKN035
     FM232100 33012KT P6SM BKN025
     FM240800 34006KT 5SM BR BKN010
     FM241400 36008KT P6SM BKN035=



000
FTUS41 KPBZ 232000 AAA
TAFAGC
TAF AMD
KAGC 232020Z 2320/2418 32012G20KT P6SM SCT022 BKN040
     FM232100 32010G15KT P6SM BKN025
     FM240800 33006KT 5SM BR BKN015
     FM241400 36008KT P6SM BKN035=



000
FTUS41 KPBZ 232000 AAA
TAFPIT
TAF AMD
KPIT 232018Z 2320/2424 29013KT P6SM SCT025 BKN035
     FM232100 33012KT P6SM BKN025
     FM240800 34006KT 5SM BR BKN015
     FM241400 36008KT P6SM BKN035=



000
FTUS41 KPBZ 231800 AAA
TAFMGW
TAF AMD
KMGW 231823Z 2318/2418 21010KT P6SM FEW027
     FM231900 29010KT P6SM -SHRA VCTS BKN035CB
     FM240300 33010KT P6SM BKN025
     FM241600 02008KT P6SM SCT035=



000
FTUS41 KPBZ 231700
TAFLBE
TAF
KLBE 231720Z 2318/2418 24010KT P6SM VCSH SCT022 OVC220
     FM232200 32012KT P6SM BKN025
     FM241500 36008KT P6SM BKN035=



000
FTUS41 KPBZ 231700
TAFPIT
TAF
KPIT 231720Z 2318/2424 31010KT P6SM VCSH SCT022 BKN035
     FM232000 32012KT P6SM BKN025
     FM241500 36008KT P6SM BKN035=



000
FTUS41 KPBZ 231700
TAFHLG
TAF
KHLG 231720Z 2318/2418 30007KT P6SM VCSH SCT024 BKN040
     FM232000 33012KT P6SM BKN025
     FM241500 01008KT P6SM SCT035=



000
FTUS41 KPBZ 231700
TAFAGC
TAF
KAGC 231720Z 2318/2418 28010KT P6SM VCSH SCT022 BKN040
     FM232000 32012KT P6SM BKN025
     FM241500 36008KT P6SM BKN035=



000
FTUS41 KPBZ 231700
TAFBVI
TAF
KBVI 231720Z 2318/2418 32012KT P6SM VCSH SCT024 BKN040
     FM232000 35012KT P6SM BKN020
     FM241500 36008KT P6SM BKN035=



000
FTUS41 KPBZ 231700
TAFMGW
TAF
KMGW 231720Z 2318/2418 21010KT P6SM FEW027
     FM232100 29010KT P6SM -SHRA BKN035
     FM240300 33010KT P6SM BKN025
     FM241600 02008KT P6SM SCT035=



000
FTUS41 KPBZ 231700
TAFZZV
TAF
KZZV 231720Z 2318/2418 31006KT P6SM SCT200
     FM232100 34012KT P6SM SCT020 BKN035
     FM240300 36006KT P6SM BKN035=



000
FTUS41 KPBZ 231700
TAFDUJ
TAF
KDUJ 231720Z 2318/2418 25008KT P6SM VCSH SCT022 SCT030 SCT040
     FM232100 34010KT P6SM BKN012
     FM240700 34004KT 4SM BR SCT004
     FM241500 01006KT P6SM BKN035=



000
FTUS41 KPBZ 231600 AAA
TAFLBE
TAF AMD
KLBE 231608Z 2316/2412 23012KT P6SM SCT030 BKN120
     FM231900 28013KT P6SM BKN035=



000
FTUS41 KPBZ 231600 AAB
TAFPIT
TAF AMD
KPIT 231605Z 2316/2418 27007KT P6SM SCT022 OVC220
     FM231900 31012KT P6SM BKN035
     FM240300 33006KT P6SM SCT035=



000
FTUS41 KPBZ 231600 AAA
TAFDUJ
TAF AMD
KDUJ 231604Z 2316/2412 26012KT P6SM VCSH SCT020 BKN035
     FM232000 31008KT P6SM BKN035=



000
FTUS41 KPBZ 231600 AAA
TAFBVI
TAF AMD
KBVI 231602Z 2316/2412 31009G16KT P6SM VCSH BKN024 OVC030
     FM231800 31012KT P6SM BKN035
     FM240300 33006KT P6SM SCT035=



000
FTUS41 KPBZ 231600 AAA
TAFAGC
TAF AMD
KAGC 231601Z 2316/2412 19011G14KT P6SM BKN200
     FM231700 25013KT P6SM VCSH SCT070 OVC200
     FM232100 31012KT P6SM BKN035
     FM240400 33006KT P6SM SCT035=



000
FTUS41 KPBZ 231500 AAA
TAFHLG
TAF AMD
KHLG 231559Z 2316/2412 24008KT P6SM FEW120 BKN200
     FM231900 29012KT P6SM BKN035
     FM240200 31006KT P6SM SCT035=



000
FTUS41 KPBZ 231500 AAA
TAFZZV
TAF AMD
KZZV 231558Z 2316/2412 34009KT P6SM VCSH SCT050 BKN090
     FM232100 31012KT P6SM BKN035
     FM240200 34006KT P6SM SCT035=



000
FTUS41 KPBZ 231400 AAA
TAFPIT
TAF AMD
KPIT 231452Z 2315/2418 22005KT P6SM SCT050 BKN200
     FM231800 27013KT P6SM -SHRA BKN035
     FM232200 31012KT P6SM BKN035
     FM240300 33006KT P6SM SCT035=



000
FTUS41 KPBZ 231100 CCA
TAFAGC
TAF COR
KAGC 231122Z 2312/2412 22007KT P6SM BKN050
      TEMPO 2312/2313 5SM BR
     FM231700 25013KT 5SM -SHRA VCTS BKN035CB
     FM232300 31012KT P6SM BKN035
     FM240400 33006KT P6SM SCT035=



000
FTUS41 KPBZ 231100
TAFAGC
TAF
KAGC 231120Z 2312/2412 22007KT P6SM BKN050
     FM231700 25013KT 5SM -SHRA VCTS BKN035CB
     FM232300 31012KT P6SM BKN035
     FM240400 33006KT P6SM SCT035=



000
FTUS41 KPBZ 231100
TAFLBE
TAF
KLBE 231120Z 2312/2412 21005KT P6SM -SHRA VCTS BKN040CB
     FM231300 23008KT P6SM BKN050
     FM231900 23013KT 5SM -SHRA VCTS BKN035CB
     FM240300 28012KT P6SM BKN035=



000
FTUS41 KPBZ 231100
TAFMGW
TAF
KMGW 231120Z 2312/2412 00000KT P6SM VCSH BKN060
     FM231300 22006KT P6SM BKN050
     FM231900 24010KT 5SM -SHRA VCTS BKN035CB
     FM240300 27010KT P6SM BKN035=



000
FTUS41 KPBZ 231100
TAFHLG
TAF
KHLG 231120Z 2312/2412 23006KT P6SM SCT050
     FM231500 25012KT 5SM -SHRA VCTS BKN035CB
     FM232100 29012KT P6SM BKN035
     FM240200 31006KT P6SM SCT035=



000
FTUS41 KPBZ 231100
TAFPIT
TAF
KPIT 231120Z 2312/2418 22005KT P6SM SCT050
     FM231600 25013KT 5SM -SHRA VCTS BKN035CB
     FM232200 31012KT P6SM BKN035
     FM240300 33006KT P6SM SCT035=



000
FTUS41 KPBZ 231100
TAFBVI
TAF
KBVI 231120Z 2312/2412 22004KT P6SM SCT050
     FM231600 25013KT 5SM -SHRA VCTS BKN035CB
     FM232200 31012KT P6SM BKN035
     FM240300 33006KT P6SM SCT035=



000
FTUS41 KPBZ 231100
TAFDUJ
TAF
KDUJ 231120Z 2312/2412 21005KT P6SM BKN050
      TEMPO 2312/2313 5SM BR
     FM231500 26012KT 5SM -SHRA VCTS BKN035CB
     FM232100 31008KT P6SM BKN035=



000
FTUS41 KPBZ 231100
TAFZZV
TAF
KZZV 231120Z 2312/2412 VRB03KT P6SM SCT050
     FM231500 25012KT 5SM -SHRA VCTS BKN035CB
     FM232100 31012KT P6SM BKN035
     FM240200 34006KT P6SM SCT035=



000
FTUS41 KPBZ 231000 AAA
TAFAGC
TAF AMD
KAGC 231023Z 2310/2406 27008KT 4SM -TSRA BKN035CB
     FM231100 23008KT P6SM BKN040
     FM231700 25013KT 5SM -SHRA VCTS BKN035CB
     FM232300 31012KT P6SM BKN035
     FM240400 33006KT P6SM SCT035=



000
FTUS41 KPBZ 231000 AAA
TAFMGW
TAF AMD
KMGW 231009Z 2310/2406 00000KT P6SM VCSH BKN060
     FM231400 22006KT P6SM BKN050
     FM231900 24010KT 5SM -SHRA VCTS BKN035CB
     FM240300 27010KT P6SM BKN035=



000
FTUS41 KPBZ 231000 AAA
TAFZZV
TAF AMD
KZZV 231009Z 2310/2406 VRB03KT P6SM SCT050
     FM231500 25012KT 5SM -SHRA VCTS BKN035CB
     FM232100 31012KT P6SM BKN035
     FM240200 34006KT P6SM SCT035=



000
FTUS41 KPBZ 231000 AAA
TAFHLG
TAF AMD
KHLG 231008Z 2310/2406 23006KT P6SM OVC080
     FM231500 25012KT 5SM -SHRA VCTS BKN035CB
     FM232100 29012KT P6SM BKN035
     FM240200 31006KT P6SM SCT035=



000
FTUS41 KPBZ 230800 AAB
TAFPIT
TAF AMD
KPIT 230855Z 2309/2412 22005KT P6SM BKN050
     FM231600 25013KT 5SM -SHRA VCTS BKN035CB
     FM232200 31012KT P6SM BKN035
     FM240300 33006KT P6SM SCT035=



000
FTUS41 KPBZ 230800 AAA
TAFPIT
TAF AMD
KPIT 230806Z 2308/2412 21005KT P6SM SCT050
     FM231600 25013KT 5SM -SHRA VCTS BKN035CB
     FM232200 31012KT P6SM BKN035
     FM240300 33006KT P6SM SCT035=



000
FTUS41 KPBZ 230800 AAA
TAFDUJ
TAF AMD
KDUJ 230801Z 2308/2406 21005KT P6SM SCT050
     FM231500 26012KT 5SM -SHRA VCTS BKN035CB
     FM232100 31008KT P6SM BKN035=



000
FTUS41 KPBZ 230500
TAFDUJ
TAF
KDUJ 230528Z 2306/2406 21005KT P6SM SKC
      TEMPO 2308/2312 3SM BR
     FM231500 26012KT 5SM -SHRA VCTS BKN035CB
     FM232100 31008KT P6SM BKN035=



000
FTUS41 KPBZ 230500
TAFHLG
TAF
KHLG 230528Z 2306/2406 19004KT P6SM SKC
      TEMPO 2309/2312 3SM BR
     FM231500 25012KT 5SM -SHRA VCTS BKN035CB
     FM232100 29012KT P6SM BKN035
     FM240200 31006KT P6SM SCT035=



000
FTUS41 KPBZ 230500
TAFMGW
TAF
KMGW 230528Z 2306/2406 19003KT P6SM SKC
      TEMPO 2309/2312 4SM BR
     FM231900 24010KT 5SM -SHRA VCTS BKN035CB
     FM240300 27010KT P6SM BKN035=



000
FTUS41 KPBZ 230500
TAFBVI
TAF
KBVI 230528Z 2306/2406 22004KT P6SM SKC
      TEMPO 2309/2312 4SM BR
     FM231600 25013KT 5SM -SHRA VCTS BKN035CB
     FM232200 31012KT P6SM BKN035
     FM240300 33006KT P6SM SCT035
      AMD NOT SKED=



000
FTUS41 KPBZ 230500
TAFAGC
TAF
KAGC 230528Z 2306/2406 22007KT P6SM SKC
     FM231700 25013KT 5SM -SHRA VCTS BKN035CB
     FM232300 31012KT P6SM BKN035
     FM240400 33006KT P6SM SCT035=



000
FTUS41 KPBZ 230500
TAFLBE
TAF
KLBE 230528Z 2306/2406 23005KT P6SM SKC
     FM231900 23013KT 5SM -SHRA VCTS BKN035CB
     FM240300 28012KT P6SM BKN035=



000
FTUS41 KPBZ 230500
TAFZZV
TAF
KZZV 230528Z 2306/2406 VRB03KT P6SM SKC
      TEMPO 2309/2312 3SM BR
     FM231500 25012KT 5SM -SHRA VCTS BKN035CB
     FM232100 31012KT P6SM BKN035
     FM240200 34006KT P6SM SCT035=



000
FTUS41 KPBZ 230500
TAFPIT
TAF
KPIT 230528Z 2306/2412 22004KT P6SM SKC
      TEMPO 2309/2312 4SM BR
     FM231600 25013KT 5SM -SHRA VCTS BKN035CB
     FM232200 31012KT P6SM BKN035
     FM240300 33006KT P6SM SCT035=



000
FTUS41 KPBZ 230200 AAA
TAFPIT
TAF AMD
KPIT 230221Z 2302/2406 21003KT P6SM SKC
     FM230900 00000KT 5SM BR SKC
     FM231500 25011G16KT P6SM SCT030 BKN100
     FM231800 28012G18KT 5SM -SHRA VCTS BKN035CB
     FM232200 30009G15KT P6SM SCT030
     FM240300 33006KT P6SM SCT030=



000
FTUS41 KPBZ 222300
TAFHLG
TAF
KHLG 222329Z 2300/2324 23005KT P6SM SKC
     FM231000 00000KT 3SM BR SKC
     FM231400 25011G16KT P6SM SCT030 BKN100
     FM231800 28012G18KT 5SM -SHRA VCTS BKN035CB
     FM232200 30009G15KT P6SM SCT030=



000
FTUS41 KPBZ 222300
TAFAGC
TAF
KAGC 222329Z 2300/2324 20005KT P6SM SKC
     FM231000 VRB03KT 3SM BR SKC
     FM231400 25011G16KT P6SM SCT030 BKN100
     FM231800 28012G18KT 5SM -SHRA VCTS BKN035CB
     FM232200 30009G15KT P6SM SCT030=



000
FTUS41 KPBZ 222300
TAFLBE
TAF
KLBE 222329Z 2300/2324 22005KT P6SM SKC
     FM231000 00000KT 6SM BR SKC
     FM231400 25011G16KT P6SM SCT030 BKN100
     FM232000 28012G18KT 5SM -SHRA VCTS BKN035CB=



000
FTUS41 KPBZ 222300
TAFDUJ
TAF
KDUJ 222329Z 2300/2324 20003KT P6SM FEW050
     FM230800 00000KT 1SM BR SKC
     FM231300 25010KT P6SM SCT030 BKN100
     FM231600 28012G18KT 5SM -SHRA VCTS BKN035CB
     FM232300 30009G15KT P6SM SCT030=



000
FTUS41 KPBZ 222300
TAFBVI
TAF
KBVI 222329Z 2300/2324 22005KT P6SM SKC
     FM231000 00000KT 3SM BR SKC
     FM231400 25011G16KT P6SM SCT030 BKN100
     FM231700 28012G18KT 5SM -SHRA VCTS BKN035CB
     FM232200 30009G15KT P6SM SCT030
      AMD NOT SKED 2301/2311=



000
FTUS41 KPBZ 222300
TAFZZV
TAF
KZZV 222329Z 2300/2324 21003KT P6SM FEW050
     FM231000 00000KT 1SM BR SKC
     FM231300 25010KT P6SM SCT030 BKN100
     FM231600 28012G18KT 5SM -SHRA VCTS BKN035CB
     FM232200 30009G15KT P6SM SCT030=



000
FTUS41 KPBZ 222300
TAFMGW
TAF
KMGW 222329Z 2300/2324 22004KT P6SM SKC
     FM231500 25011G16KT P6SM SCT030 BKN100
     FM231900 28012G18KT 5SM -SHRA VCTS BKN035CB=



000
FTUS41 KPBZ 222300
TAFPIT
TAF
KPIT 222329Z 2300/2406 21005KT P6SM SKC
     FM230900 00000KT 5SM BR SKC
     FM231500 25011G16KT P6SM SCT030 BKN100
     FM231800 28012G18KT 5SM -SHRA VCTS BKN035CB
     FM232200 30009G15KT P6SM SCT030
     FM240300 33006KT P6SM SCT030=



000
FTUS41 KPBZ 222000 AAA
TAFPIT
TAF AMD
KPIT 222055Z 2221/2324 21005KT P6SM SCT050
     FM231500 25011G16KT P6SM SCT030 BKN100
     FM231800 28012G18KT 5SM -SHRA VCTS BKN035CB
     FM232100 30009G15KT P6SM SCT030=



000
FTUS41 KPBZ 221700
TAFZZV
TAF
KZZV 221728Z 2218/2318 VRB03KT P6SM SCT030
     FM230900 VRB03KT 3SM BR SCT030
     FM231300 22008KT P6SM BKN035
     FM231500 26012G18KT 5SM -SHRA VCTS BKN035CB=



000
FTUS41 KPBZ 221700
TAFBVI
TAF
KBVI 221728Z 2218/2318 21005KT P6SM SCT030
     FM231100 VRB04KT 4SM BR SCT030
     FM231400 25011G16KT P6SM SCT030 BKN100=



000
FTUS41 KPBZ 221700
TAFPIT
TAF
KPIT 221728Z 2218/2324 21005KT P6SM SCT030
     FM231500 25011G16KT P6SM SCT030 BKN100
     FM231800 28012G18KT 5SM -SHRA VCTS BKN035CB
     FM232100 30009G15KT P6SM SCT030=



000
FTUS41 KPBZ 221700
TAFMGW
TAF
KMGW 221728Z 2218/2318 22004KT P6SM SCT035
     FM231500 22008G15KT P6SM BKN035=



000
FTUS41 KPBZ 221700
TAFDUJ
TAF
KDUJ 221728Z 2218/2318 23006KT P6SM SCT027 SCT035 BKN045
     FM230900 VRB03KT 3SM BR SCT030
     FM231300 24008KT P6SM BKN035
     FM231600 26012G18KT P6SM BKN035=



000
FTUS41 KPBZ 221700
TAFLBE
TAF
KLBE 221728Z 2218/2318 21005KT P6SM SCT030
     FM231500 25011G16KT P6SM SCT030 BKN100=



000
FTUS41 KPBZ 221700
TAFAGC
TAF
KAGC 221728Z 2218/2318 21005KT P6SM SCT030
     FM231500 25011G16KT P6SM SCT030 BKN100=



000
FTUS41 KPBZ 221700
TAFHLG
TAF
KHLG 221728Z 2218/2318 21005KT P6SM SCT030
     FM231500 25011G16KT P6SM SCT030 BKN100=



000
FTUS41 KPBZ 221400 AAA
TAFPIT
TAF AMD
KPIT 221452Z 2215/2318 21005KT P6SM FEW050 FEW250=



000
FTUS41 KPBZ 221300 AAA
TAFBVI
TAF AMD
KBVI 221311Z 2213/2312 20005KT P6SM SCT050=



000
FTUS41 KPBZ 221300 AAA
TAFDUJ
TAF AMD
KDUJ 221311Z 2213/2312 17005KT P6SM SCT050=



000
FTUS41 KPBZ 221200 AAA
TAFHLG
TAF AMD
KHLG 221234Z 2213/2312 18005KT P6SM SKC=



000
FTUS41 KPBZ 221200 AAA
TAFZZV
TAF AMD
KZZV 221233Z 2213/2312 00000KT 4SM BR SKC
     FM221300 20005KT P6SM SCT050=



000
FTUS41 KPBZ 221100
TAFAGC
TAF
KAGC 221120Z 2212/2312 00000KT 6SM BR SKC
     FM221400 18005KT P6SM SCT050=



000
FTUS41 KPBZ 221100
TAFBVI
TAF
KBVI 221120Z 2212/2312 00000KT 3SM BR SKC
     FM221400 20005KT P6SM SCT050=



000
FTUS41 KPBZ 221100
TAFDUJ
TAF
KDUJ 221120Z 2212/2312 11004KT 3SM BR SCT004
     FM221400 16005KT P6SM SCT050=



000
FTUS41 KPBZ 221100
TAFMGW
TAF
KMGW 221120Z 2212/2312 VRB03KT P6SM SKC
     FM221400 17005KT P6SM SCT050=



000
FTUS41 KPBZ 221100
TAFLBE
TAF
KLBE 221120Z 2212/2312 00000KT 6SM BR SKC
     FM221400 19005KT P6SM SCT050=



000
FTUS41 KPBZ 221100
TAFHLG
TAF
KHLG 221120Z 2212/2312 00000KT 5SM BR SKC
     FM221400 17005KT P6SM BKN250=



000
FTUS41 KPBZ 221100
TAFPIT
TAF
KPIT 221120Z 2212/2318 00000KT P6SM SKC
     FM221400 20005KT P6SM SCT050=



000
FTUS41 KPBZ 221100
TAFZZV
TAF
KZZV 221120Z 2212/2312 00000KT 1/4SM FG VV001
      TEMPO 2212/2214 4SM BR SKC
     FM221400 20005KT P6SM SCT050=



000
FTUS41 KPBZ 221000 AAC
TAFDUJ
TAF AMD
KDUJ 221038Z 2211/2306 08004KT 2SM BR SCT004
     FM221400 17003KT P6SM SCT050=



000
FTUS41 KPBZ 221000 AAA
TAFLBE
TAF AMD
KLBE 221001Z 2210/2306 00000KT 4SM BR SCT050
     FM221300 20004KT P6SM SCT050=



000
FTUS41 KPBZ 220900 AAA
TAFAGC
TAF AMD
KAGC 220936Z 2210/2306 17004KT P6SM SKC
     FM221100 VRB03KT 4SM BR SKC
     FM221400 20004KT P6SM SCT050=



000
FTUS41 KPBZ 220800 AAA
TAFPIT
TAF AMD
KPIT 220856Z 2209/2312 00000KT P6SM SKC
     FM221100 00000KT 4SM BR SKC
     FM221400 20004KT P6SM SCT050=



000
FTUS41 KPBZ 220800 AAB
TAFDUJ
TAF AMD
KDUJ 220853Z 2209/2306 08004KT 1/4SM FG VV002
     FM221100 00000KT 1SM BR BKN006
     FM221400 17003KT P6SM SCT050=



000
FTUS41 KPBZ 220700 AAA
TAFDUJ
TAF AMD
KDUJ 220725Z 2207/2306 VRB03KT 2SM BR BKN006
     FM221000 00000KT 1SM BR BKN006
     FM221400 17003KT P6SM SCT050=



000
FTUS41 KPBZ 220600 AAA
TAFHLG
TAF AMD
KHLG 220659Z 2207/2306 VRB03KT 3SM BR SKC
     FM221400 17003KT P6SM BKN250=



    US Dept of Commerce
    National Oceanic and Atmospheric Administration
    National Weather Service
    1325 East West Highway
    Silver Spring, MD 20910
    Page Author: NWS Internet Services Team
Disclaimer
Information Quality
Credits
Glossary
Privacy Policy
Freedom of Information Act (FOIA)
About Us
Career Opportunities